Time;durP1;ratioP1;P1;durP2;ratioP2;P2;SDS_P1;SDS_P2;PMS_P1;PMS_P2;Temp;Humidity;BMP_temperature;BMP_pressure;BME280_temperature;BME280_humidity;BME280_pressure;Samples;Min_cycle;Max_cycle;Signal;HPM_P1;HPM_P2
2024/01/23 00:02:23;;;;;;;1.57;1.10;;;9.60;43.90;;;;;;10338489;28;20234;-84
2024/01/23 00:07:27;;;;;;;1.20;0.90;;;9.60;44.00;;;;;;10335578;28;20227;-84
2024/01/23 00:12:31;;;;;;;0.93;0.80;;;9.60;44.50;;;;;;10355386;28;20313;-84
2024/01/23 00:17:35;;;;;;;1.47;1.07;;;9.60;44.50;;;;;;10375808;28;20230;-84
2024/01/23 00:22:39;;;;;;;2.20;1.00;;;9.60;44.50;;;;;;10381645;28;20231;-84
2024/01/23 00:27:43;;;;;;;1.90;1.00;;;9.60;45.00;;;;;;10380407;28;20234;-84
2024/01/23 00:32:46;;;;;;;1.00;0.90;;;9.70;44.60;;;;;;10383130;28;20262;-84
2024/01/23 00:37:50;;;;;;;2.03;1.00;;;9.80;44.60;;;;;;10386161;28;20261;-84
2024/01/23 00:42:54;;;;;;;0.73;0.73;;;9.90;44.70;;;;;;10380028;28;20233;-84
2024/01/23 00:47:57;;;;;;;1.10;1.00;;;9.90;44.30;;;;;;10379420;28;20326;-83
2024/01/23 00:53:02;;;;;;;1.40;1.10;;;9.90;44.50;;;;;;10373413;28;20643;-84
2024/01/23 00:58:05;;;;;;;1.73;1.23;;;9.90;44.70;;;;;;10369768;28;20246;-83
2024/01/23 01:03:14;;;;;;;1.97;0.90;;;9.80;44.30;;;;;;10374318;28;20283;-83
2024/01/23 01:08:19;;;;;;;2.20;1.17;;;9.80;45.00;;;;;;10370065;28;20251;-84
2024/01/23 01:13:22;;;;;;;2.20;1.20;;;9.70;44.50;;;;;;10369916;28;20247;-84
2024/01/23 01:18:26;;;;;;;1.07;0.80;;;9.60;45.00;;;;;;10373941;28;20277;-84
2024/01/23 01:23:31;;;;;;;1.90;1.00;;;9.60;44.10;;;;;;10371479;28;20238;-84
2024/01/23 01:28:34;;;;;;;1.47;0.90;;;9.50;44.00;;;;;;10370002;28;20342;-84
2024/01/23 01:33:38;;;;;;;1.30;0.70;;;9.50;43.70;;;;;;10363891;28;20757;-84
2024/01/23 01:38:43;;;;;;;1.27;0.90;;;9.50;43.50;;;;;;10363595;28;20229;-83
2024/01/23 01:43:50;;;;;;;1.33;0.80;;;9.50;43.30;;;;;;10362245;28;20730;-84
2024/01/23 01:48:54;;;;;;;1.43;0.90;;;9.50;43.10;;;;;;10364191;28;20322;-84
2024/01/23 01:54:00;;;;;;;1.63;0.80;;;9.50;43.10;;;;;;10360490;28;20233;-84
2024/01/23 01:59:03;;;;;;;0.57;0.57;;;9.50;43.00;;;;;;10364682;28;20594;-83
2024/01/23 02:04:07;;;;;;;1.50;0.83;;;9.50;42.90;;;;;;10352075;28;20735;-84
2024/01/23 02:09:11;;;;;;;1.13;0.90;;;9.50;42.90;;;;;;10358148;28;20226;-84
2024/01/23 02:14:15;;;;;;;1.47;0.80;;;9.50;42.90;;;;;;10359779;28;20238;-84
2024/01/23 02:19:18;;;;;;;0.90;0.80;;;9.50;42.80;;;;;;10359092;28;20309;-83
2024/01/23 02:24:23;;;;;;;1.90;0.90;;;9.50;42.70;;;;;;10353846;28;20603;-83
2024/01/23 02:29:26;;;;;;;1.13;0.80;;;9.50;42.70;;;;;;10354328;28;20268;-84
2024/01/23 02:34:30;;;;;;;1.07;0.80;;;9.50;42.70;;;;;;10353551;28;20249;-83
2024/01/23 02:39:35;;;;;;;1.90;1.07;;;9.40;42.80;;;;;;10361769;28;20297;-83
2024/01/23 02:44:41;;;;;;;0.97;0.60;;;9.40;42.90;;;;;;10357447;28;20231;-83
2024/01/23 02:49:44;;;;;;;1.70;0.90;;;9.40;42.80;;;;;;10364248;28;20645;-84
2024/01/23 02:54:48;;;;;;;0.93;0.77;;;9.40;42.90;;;;;;10360085;28;20244;-84
2024/01/23 02:59:52;;;;;;;1.03;0.90;;;9.30;43.00;;;;;;10363915;28;20290;-84
2024/01/23 03:04:55;;;;;;;2.70;0.90;;;9.30;43.00;;;;;;10361646;28;20252;-83
2024/01/23 03:10:00;;;;;;;1.20;1.00;;;9.20;43.10;;;;;;10361877;28;20660;-83
2024/01/23 03:15:04;;;;;;;2.20;1.10;;;9.20;43.30;;;;;;10356669;28;20317;-84
2024/01/23 03:20:08;;;;;;;1.43;0.90;;;9.10;43.30;;;;;;10370665;28;20265;-84
2024/01/23 03:25:13;;;;;;;1.83;0.97;;;9.10;43.40;;;;;;10365311;28;20305;-84
2024/01/23 03:30:28;;;;;;;2.37;1.03;;;9.10;43.50;;;;;;10378178;28;20273;-84
2024/01/23 03:35:32;;;;;;;1.13;0.80;;;9.00;43.80;;;;;;10378267;28;20226;-84
2024/01/23 03:40:36;;;;;;;1.00;0.80;;;9.00;43.20;;;;;;10369496;28;20276;-84
2024/01/23 03:45:40;;;;;;;2.10;1.20;;;8.90;43.40;;;;;;10378961;28;20234;-84
2024/01/23 03:50:43;;;;;;;2.03;0.87;;;8.90;43.30;;;;;;10367011;28;20234;-84
2024/01/23 03:55:48;;;;;;;1.00;0.90;;;8.80;43.30;;;;;;10364956;28;20310;-84
2024/01/23 04:00:53;;;;;;;2.13;0.83;;;8.80;43.50;;;;;;10372355;28;20269;-84
2024/01/23 04:05:56;;;;;;;1.97;1.07;;;8.80;43.30;;;;;;10375364;28;20307;-84
2024/01/23 04:11:01;;;;;;;2.93;1.87;;;8.80;43.40;;;;;;10387930;28;20223;-84
2024/01/23 04:16:06;;;;;;;4.47;3.37;;;8.80;43.70;;;;;;10371658;28;20254;-84
2024/01/23 04:21:10;;;;;;;1.93;1.10;;;8.80;43.70;;;;;;10378225;28;20230;-85
2024/01/23 04:26:18;;;;;;;1.93;1.13;;;8.80;43.50;;;;;;10369862;28;20234;-84
2024/01/23 04:31:21;;;;;;;2.67;1.67;;;8.80;43.60;;;;;;10367619;28;20230;-84
2024/01/23 04:36:24;;;;;;;2.20;1.07;;;8.90;43.60;;;;;;10372396;28;20230;-84
2024/01/23 04:41:30;;;;;;;2.40;1.00;;;8.90;43.30;;;;;;10364832;28;20280;-84
2024/01/23 04:46:36;;;;;;;4.07;1.53;;;8.80;43.40;;;;;;10378241;28;20226;-83
2024/01/23 04:51:39;;;;;;;4.47;2.50;;;8.80;43.50;;;;;;10377102;28;20262;-84
2024/01/23 04:56:44;;;;;;;4.70;3.07;;;8.80;43.30;;;;;;10384016;28;20241;-84
2024/01/23 05:01:47;;;;;;;1.90;1.20;;;8.70;43.30;;;;;;10368882;28;20221;-84
2024/01/23 05:06:51;;;;;;;2.50;1.40;;;8.70;43.20;;;;;;10385327;28;20238;-83
2024/01/23 05:11:56;;;;;;;5.00;3.77;;;8.70;43.30;;;;;;10379532;28;20258;-84
2024/01/23 05:17:00;;;;;;;3.50;2.50;;;8.50;43.50;;;;;;10383024;28;20246;-84
2024/01/23 05:22:03;;;;;;;7.87;4.40;;;8.60;43.40;;;;;;10380103;28;20234;-83
2024/01/23 05:27:08;;;;;;;5.07;3.27;;;8.50;43.50;;;;;;10383112;28;20242;-83
2024/01/23 05:32:11;;;;;;;4.83;2.13;;;8.40;43.60;;;;;;10372684;28;20301;-83
2024/01/23 05:37:19;;;;;;;4.47;3.20;;;8.50;43.40;;;;;;10376862;28;20253;-84
2024/01/23 05:42:24;;;;;;;3.23;1.90;;;8.40;43.70;;;;;;10369572;28;20301;-84
2024/01/23 05:47:27;;;;;;;4.50;2.10;;;8.40;43.60;;;;;;10366497;28;20222;-83
2024/01/23 05:52:30;;;;;;;3.33;1.63;;;8.30;43.50;;;;;;10368916;28;20241;-78
2024/01/23 05:57:35;;;;;;;4.07;1.57;;;8.30;43.70;;;;;;10362576;28;20315;-79
2024/01/23 06:02:38;;;;;;;4.63;1.60;;;8.30;43.90;;;;;;10371444;28;20230;-79
2024/01/23 06:07:48;;;;;;;2.70;1.50;;;8.30;43.80;;;;;;10365229;28;20235;-79
2024/01/23 06:12:53;;;;;;;4.23;1.50;;;8.40;43.80;;;;;;10361579;28;20230;-79
2024/01/23 06:17:56;;;;;;;2.87;1.67;;;8.40;43.90;;;;;;10362282;28;20227;-79
2024/01/23 06:22:59;;;;;;;3.83;1.50;;;8.50;43.90;;;;;;10357896;28;20238;-79
2024/01/23 06:28:05;;;;;;;3.77;1.70;;;8.50;44.10;;;;;;10358740;28;20595;-80
2024/01/23 06:33:08;;;;;;;4.77;1.60;;;8.50;44.20;;;;;;10360593;28;20242;-80
2024/01/23 06:38:12;;;;;;;3.20;1.83;;;8.50;44.10;;;;;;10370266;28;20301;-80
2024/01/23 06:43:16;;;;;;;4.27;1.50;;;8.60;43.90;;;;;;10360086;28;20246;-80
2024/01/23 06:48:19;;;;;;;4.43;1.60;;;8.60;43.80;;;;;;10378075;28;20794;-80
2024/01/23 06:53:23;;;;;;;4.87;1.67;;;8.70;43.60;;;;;;10349912;28;20234;-79
2024/01/23 06:58:28;;;;;;;3.80;1.40;;;8.80;43.70;;;;;;10348730;28;20761;-80
2024/01/23 07:03:31;;;;;;;2.20;1.30;;;8.80;43.80;;;;;;10401746;28;20226;-80
2024/01/23 07:08:35;;;;;;;3.47;1.73;;;8.70;43.70;;;;;;10378007;28;20233;-78
2024/01/23 07:13:40;;;;;;;5.27;1.50;;;8.70;43.70;;;;;;10372002;28;20238;-77
2024/01/23 07:18:43;;;;;;;4.57;2.10;;;8.70;43.80;;;;;;10376014;28;20230;-78
2024/01/23 07:23:47;;;;;;;4.47;2.20;;;8.70;43.70;;;;;;10376029;28;20234;-77
2024/01/23 07:28:52;;;;;;;2.53;1.53;;;8.70;43.80;;;;;;10376833;28;20230;-78
2024/01/23 07:34:03;;;;;;;3.00;1.60;;;8.70;43.90;;;;;;10376195;28;20277;-78
2024/01/23 07:39:07;;;;;;;5.70;1.87;;;8.60;43.70;;;;;;10376364;28;20257;-77
2024/01/23 07:44:12;;;;;;;2.07;1.10;;;8.70;43.90;;;;;;10376118;28;20753;-78
2024/01/23 07:49:15;;;;;;;2.10;0.97;;;8.70;44.00;;;;;;10375771;28;20309;-78
2024/01/23 07:54:18;;;;;;;2.50;1.13;;;8.70;43.80;;;;;;10375890;28;20238;-78
2024/01/23 07:59:23;;;;;;;2.17;1.13;;;8.70;43.90;;;;;;10375205;28;20233;-78
2024/01/23 08:04:26;;;;;;;2.47;1.30;;;8.70;43.90;;;;;;10375122;28;20234;-78
2024/01/23 08:09:29;;;;;;;3.70;1.30;;;8.70;43.80;;;;;;10375267;28;20233;-78
2024/01/23 08:14:34;;;;;;;1.73;1.20;;;8.70;43.80;;;;;;10374800;28;20238;-77
2024/01/23 08:19:39;;;;;;;2.37;1.10;;;8.70;43.90;;;;;;10372240;28;20230;-77
2024/01/23 08:24:43;;;;;;;3.10;1.37;;;8.70;43.80;;;;;;10372236;28;20235;-78
2024/01/23 08:29:47;;;;;;;1.80;1.17;;;8.70;43.90;;;;;;10371315;28;20289;-78
2024/01/23 08:34:51;;;;;;;2.63;1.30;;;8.70;43.90;;;;;;10371446;28;20329;-77
2024/01/23 08:39:55;;;;;;;2.93;1.37;;;8.70;43.90;;;;;;10356246;28;20230;-77
2024/01/23 08:44:59;;;;;;;2.17;1.20;;;8.70;44.00;;;;;;10361191;28;20251;-77
2024/01/23 08:50:03;;;;;;;3.17;1.43;;;8.70;44.60;;;;;;10362089;28;20277;-77
2024/01/23 08:55:08;;;;;;;3.60;2.10;;;8.70;43.90;;;;;;10366633;28;20238;-77
2024/01/23 09:00:14;;;;;;;3.70;1.20;;;8.70;44.00;;;;;;10349804;28;20619;-77
2024/01/23 09:05:17;;;;;;;3.53;1.30;;;8.70;43.80;;;;;;10338658;28;20234;-77
2024/01/23 09:10:20;;;;;;;2.50;1.20;;;8.80;43.80;;;;;;10357462;28;20270;-77
2024/01/23 09:15:25;;;;;;;3.07;1.20;;;8.80;43.80;;;;;;10368624;28;20994;-77
2024/01/23 09:20:30;;;;;;;3.80;1.53;;;8.90;43.90;;;;;;10356650;28;20609;-77
2024/01/23 09:25:33;;;;;;;3.67;1.30;;;8.90;44.00;;;;;;10358740;28;20291;-77
2024/01/23 09:30:37;;;;;;;3.93;1.50;;;9.00;43.80;;;;;;10343509;28;20309;-77
2024/01/23 09:35:41;;;;;;;3.23;1.30;;;9.10;43.80;;;;;;10330821;28;20724;-77
2024/01/23 09:40:49;;;;;;;3.33;1.40;;;9.20;43.70;;;;;;10327623;28;20253;-77
2024/01/23 09:45:56;;;;;;;1.90;1.13;;;9.30;43.50;;;;;;10326942;28;20241;-77
2024/01/23 09:51:00;;;;;;;3.33;1.80;;;9.40;43.60;;;;;;10326956;28;20239;-77
2024/01/23 09:56:03;;;;;;;2.87;1.40;;;9.50;43.50;;;;;;10364378;28;20253;-77
2024/01/23 10:01:08;;;;;;;2.97;1.10;;;9.60;43.30;;;;;;10326514;28;20314;-77
2024/01/23 10:06:12;;;;;;;3.57;1.60;;;9.60;43.10;;;;;;10364504;28;20664;-77
2024/01/23 10:11:15;;;;;;;4.53;1.40;;;9.70;43.10;;;;;;10359882;28;20253;-77
2024/01/23 10:16:20;;;;;;;3.57;1.37;;;9.70;43.70;;;;;;10326759;28;20314;-77
2024/01/23 10:21:23;;;;;;;3.20;1.20;;;9.80;43.00;;;;;;10326421;28;20233;-79
2024/01/23 10:26:26;;;;;;;4.00;1.20;;;9.90;42.90;;;;;;10326577;28;20238;-77
2024/01/23 10:31:31;;;;;;;3.53;1.50;;;10.00;41.90;;;;;;10359439;28;20308;-76
2024/01/23 10:36:34;;;;;;;5.40;1.67;;;10.00;41.70;;;;;;10348212;28;20222;-77
2024/01/23 10:41:38;;;;;;;2.40;1.40;;;10.10;41.50;;;;;;10352238;28;20226;-77
2024/01/23 10:46:44;;;;;;;2.97;1.33;;;10.10;41.30;;;;;;10331004;28;20533;-77
2024/01/23 10:51:51;;;;;;;4.60;1.80;;;10.10;41.00;;;;;;10352624;28;20697;-77
2024/01/23 10:56:57;;;;;;;3.70;1.40;;;10.10;40.90;;;;;;10359531;28;20231;-77
2024/01/23 11:02:05;;;;;;;3.90;1.40;;;10.10;41.30;;;;;;10371489;28;20237;-77
2024/01/23 11:07:24;;;;;;;4.57;1.63;;;10.00;40.10;;;;;;10406685;28;20337;-78
2024/01/23 11:12:37;;;;;;;4.23;1.40;;;10.00;40.10;;;;;;10409235;28;20232;-78
2024/01/23 11:17:42;;;;;;;2.90;1.23;;;10.00;39.90;;;;;;10399984;28;20230;-78
2024/01/23 11:22:47;;;;;;;4.87;1.60;;;9.90;41.00;;;;;;10367097;28;20301;-78
2024/01/23 11:27:53;;;;;;;4.77;1.60;;;9.90;41.40;;;;;;10334019;28;20641;-78
2024/01/23 11:33:22;;;;;;;4.80;1.50;;;9.90;41.50;;;;;;10334393;28;20654;-78
2024/01/23 11:38:41;;;;;;;2.77;1.37;;;9.90;41.20;;;;;;10357891;28;20246;-78
2024/01/23 11:43:44;;;;;;;4.97;2.60;;;10.00;40.50;;;;;;10371776;28;20250;-77
2024/01/23 11:48:50;;;;;;;4.10;1.53;;;10.00;40.90;;;;;;10368182;28;20329;-77
2024/01/23 11:53:57;;;;;;;3.57;1.53;;;10.10;41.00;;;;;;10359003;28;20227;-75
2024/01/23 11:59:01;;;;;;;5.67;1.73;;;10.10;40.90;;;;;;10368973;28;20238;-75
2024/01/23 12:04:05;;;;;;;3.30;1.90;;;10.10;40.90;;;;;;10344489;28;20227;-77
2024/01/23 12:09:09;;;;;;;3.23;1.53;;;10.10;40.60;;;;;;10353061;28;20666;-76
2024/01/23 12:14:13;;;;;;;5.03;1.60;;;10.10;40.70;;;;;;10368497;28;20249;-75
2024/01/23 12:19:17;;;;;;;3.43;1.63;;;10.10;40.70;;;;;;10369455;28;20237;-77
2024/01/23 12:24:23;;;;;;;3.37;1.40;;;10.10;40.80;;;;;;10366754;28;20223;-75
2024/01/23 12:29:26;;;;;;;2.77;1.23;;;10.00;40.80;;;;;;10363531;28;20333;-76
2024/01/23 12:34:32;;;;;;;2.67;1.40;;;9.90;42.00;;;;;;10360950;28;20293;-77
2024/01/23 12:39:36;;;;;;;2.27;1.27;;;9.80;42.20;;;;;;10356066;28;20281;-75
2024/01/23 12:44:39;;;;;;;3.33;1.80;;;9.80;42.30;;;;;;10358724;28;20232;-77
2024/01/23 12:49:47;;;;;;;5.03;1.87;;;9.80;42.40;;;;;;10349052;28;20246;-76
2024/01/23 12:54:53;;;;;;;4.60;1.50;;;9.80;42.40;;;;;;10351984;28;20227;-76
2024/01/23 12:59:56;;;;;;;2.70;1.33;;;9.80;42.20;;;;;;10353916;28;20227;-77
2024/01/23 13:05:00;;;;;;;1.37;1.10;;;9.80;42.20;;;;;;10351735;28;20241;-76
2024/01/23 13:10:04;;;;;;;2.10;1.00;;;9.80;42.00;;;;;;10351737;28;20218;-77
2024/01/23 13:15:09;;;;;;;2.40;1.20;;;9.70;41.80;;;;;;10350637;28;20239;-77
2024/01/23 13:20:15;;;;;;;1.73;1.17;;;9.70;42.00;;;;;;10352414;28;20230;-78
2024/01/23 13:25:19;;;;;;;4.23;1.70;;;9.70;42.20;;;;;;10347852;28;20321;-77
2024/01/23 13:30:23;;;;;;;3.27;1.50;;;9.70;42.20;;;;;;10350723;28;20239;-78
2024/01/23 13:35:28;;;;;;;2.63;1.50;;;9.70;42.00;;;;;;10349714;28;20226;-76
2024/01/23 13:40:32;;;;;;;2.57;1.33;;;9.70;42.00;;;;;;10340417;28;20762;-75
2024/01/23 13:45:35;;;;;;;4.37;1.87;;;9.60;42.10;;;;;;10351259;28;20234;-79
2024/01/23 13:50:40;;;;;;;4.47;1.50;;;9.70;42.20;;;;;;10348878;28;20314;-75
2024/01/23 13:55:43;;;;;;;4.00;1.30;;;9.80;41.80;;;;;;10354469;28;20784;-76
2024/01/23 14:00:46;;;;;;;5.33;1.80;;;9.80;41.60;;;;;;10350464;28;20994;-76
2024/01/23 14:05:51;;;;;;;4.67;1.90;;;9.90;41.70;;;;;;10347806;28;20239;-79
2024/01/23 14:10:55;;;;;;;4.40;1.80;;;10.00;40.10;;;;;;10346068;28;20254;-79
2024/01/23 14:15:59;;;;;;;5.97;1.90;;;10.10;40.20;;;;;;10345794;28;20313;-76
2024/01/23 14:21:06;;;;;;;3.13;1.30;;;10.10;40.00;;;;;;10344532;28;20227;-79
2024/01/23 14:26:12;;;;;;;3.43;1.50;;;10.20;40.80;;;;;;10350868;28;20222;-80
2024/01/23 14:31:15;;;;;;;3.40;1.47;;;10.20;40.10;;;;;;10346699;28;20240;-80
2024/01/23 14:36:20;;;;;;;5.20;1.80;;;10.20;40.10;;;;;;10346065;28;20409;-80
2024/01/23 14:41:23;;;;;;;4.93;1.70;;;10.20;40.10;;;;;;10358233;28;20233;-80
2024/01/23 14:46:26;;;;;;;6.73;1.83;;;10.20;40.10;;;;;;10356167;28;20238;-80
2024/01/23 14:51:32;;;;;;;3.73;1.70;;;10.20;40.10;;;;;;10359598;28;20241;-80
2024/01/23 14:56:37;;;;;;;3.93;1.60;;;10.20;40.10;;;;;;10361269;28;20222;-80
2024/01/23 15:01:40;;;;;;;2.97;1.70;;;10.30;40.20;;;;;;10360656;28;20222;-80
2024/01/23 15:06:45;;;;;;;3.83;1.60;;;10.30;40.20;;;;;;10368229;28;20308;-80
2024/01/23 15:11:48;;;;;;;4.73;1.53;;;10.30;40.20;;;;;;10364379;28;20294;-79
2024/01/23 15:16:52;;;;;;;6.17;1.97;;;10.30;40.20;;;;;;10383445;28;20234;-78
2024/01/23 15:21:57;;;;;;;3.27;1.70;;;10.40;40.30;;;;;;10351850;28;20250;-79
2024/01/23 15:27:00;;;;;;;4.83;2.00;;;10.30;40.20;;;;;;10353227;28;20226;-79
2024/01/23 15:32:03;;;;;;;4.73;2.00;;;10.40;40.30;;;;;;10356940;28;20266;-79
2024/01/23 15:37:08;;;;;;;4.37;1.90;;;10.40;40.30;;;;;;10361812;28;20265;-79
2024/01/23 15:42:13;;;;;;;5.17;2.37;;;10.40;40.30;;;;;;10361305;28;20261;-79
2024/01/23 15:47:16;;;;;;;3.87;2.17;;;10.30;40.20;;;;;;10358377;28;20234;-79
2024/01/23 15:52:22;;;;;;;3.97;2.40;;;10.30;39.90;;;;;;10364407;28;20230;-79
2024/01/23 15:57:28;;;;;;;6.10;2.40;;;10.30;39.30;;;;;;10355266;28;20226;-79
2024/01/23 16:02:32;;;;;;;6.10;3.23;;;10.30;39.50;;;;;;10359058;28;20230;-79
2024/01/23 16:07:37;;;;;;;6.47;3.50;;;10.30;39.40;;;;;;10363533;28;20228;-79
2024/01/23 16:12:40;;;;;;;4.67;2.70;;;10.30;39.20;;;;;;10359805;28;20237;-79
2024/01/23 16:17:43;;;;;;;5.70;3.00;;;10.20;39.30;;;;;;10358978;28;20227;-78
2024/01/23 16:22:50;;;;;;;8.73;4.40;;;10.20;39.30;;;;;;10340329;28;20239;-79
2024/01/23 16:27:53;;;;;;;9.10;4.67;;;10.20;39.10;;;;;;10351435;28;20783;-80
2024/01/23 16:32:56;;;;;;;8.93;4.53;;;10.10;39.30;;;;;;10347204;28;20751;-77
2024/01/23 16:38:01;;;;;;;9.47;6.50;;;10.10;39.30;;;;;;10350211;28;20247;-75
2024/01/23 16:43:06;;;;;;;9.03;5.67;;;10.00;39.10;;;;;;10353914;28;20230;-78
2024/01/23 16:48:09;;;;;;;8.60;6.10;;;10.00;39.30;;;;;;10350304;28;20234;-77
2024/01/23 16:53:14;;;;;;;9.53;6.80;;;9.90;40.20;;;;;;10344126;28;20231;-81
2024/01/23 16:58:17;;;;;;;6.83;5.30;;;9.90;39.90;;;;;;10348074;28;20703;-80
2024/01/23 17:03:20;;;;;;;13.77;9.23;;;9.80;40.10;;;;;;10346180;28;20223;-80
2024/01/23 17:08:25;;;;;;;9.23;7.63;;;9.70;40.00;;;;;;10352654;28;20261;-80
2024/01/23 17:13:29;;;;;;;9.23;6.07;;;9.70;39.90;;;;;;10356812;28;20234;-80
2024/01/23 17:18:32;;;;;;;12.50;7.57;;;9.70;40.40;;;;;;10356841;28;20739;-79
2024/01/23 17:23:37;;;;;;;22.20;15.47;;;9.70;40.60;;;;;;10350617;28;20235;-80
2024/01/23 17:28:40;;;;;;;11.17;6.80;;;9.70;39.90;;;;;;10358214;28;20229;-80
2024/01/23 17:33:43;;;;;;;10.77;7.33;;;9.70;40.10;;;;;;10363355;28;20644;-80
2024/01/23 17:38:48;;;;;;;8.30;5.37;;;9.70;40.20;;;;;;10357452;28;20230;-81
2024/01/23 17:43:52;;;;;;;20.50;17.00;;;9.60;39.70;;;;;;10353614;28;20229;-78
2024/01/23 17:48:55;;;;;;;10.47;7.17;;;9.60;39.80;;;;;;10342949;28;20701;-79
2024/01/23 17:54:02;;;;;;;8.10;5.90;;;9.50;39.90;;;;;;10349983;28;20231;-80
2024/01/23 17:59:05;;;;;;;8.73;5.57;;;9.50;39.80;;;;;;10348612;28;20254;-80
2024/01/23 18:04:09;;;;;;;7.80;4.70;;;9.30;39.90;;;;;;10345825;28;20341;-80
2024/01/23 18:09:13;;;;;;;6.33;3.30;;;9.20;40.20;;;;;;10343487;28;20599;-80
2024/01/23 18:14:19;;;;;;;4.60;3.40;;;9.10;40.10;;;;;;10340915;28;20231;-80
2024/01/23 18:19:22;;;;;;;7.23;2.77;;;9.00;40.10;;;;;;10334824;28;20290;-78
2024/01/23 18:24:26;;;;;;;8.00;3.67;;;9.00;40.10;;;;;;10340406;28;20961;-77
2024/01/23 18:29:30;;;;;;;5.37;2.67;;;9.00;40.10;;;;;;10339941;28;20260;-79
2024/01/23 18:34:33;;;;;;;4.17;2.13;;;9.00;40.10;;;;;;10344515;28;20280;-79
2024/01/23 18:39:39;;;;;;;5.70;2.20;;;9.10;40.50;;;;;;10345861;28;20225;-78
2024/01/23 18:44:42;;;;;;;3.33;1.63;;;9.20;40.80;;;;;;10337293;28;20253;-77
2024/01/23 18:49:46;;;;;;;4.70;1.80;;;9.20;40.80;;;;;;10348856;28;21098;-81
2024/01/23 18:54:51;;;;;;;5.30;2.73;;;9.30;40.80;;;;;;10349969;28;20296;-81
2024/01/23 18:59:54;;;;;;;5.47;2.10;;;9.40;40.50;;;;;;10356023;28;20250;-82
2024/01/23 19:04:58;;;;;;;3.73;1.57;;;9.50;40.50;;;;;;10358917;28;20223;-82
2024/01/23 19:10:03;;;;;;;4.63;1.73;;;9.60;40.50;;;;;;10354032;28;20313;-80
2024/01/23 19:15:07;;;;;;;5.53;2.20;;;9.70;40.60;;;;;;10356440;28;20234;-82
2024/01/23 19:20:11;;;;;;;7.83;3.63;;;9.70;40.60;;;;;;10359400;28;20601;-83
2024/01/23 19:25:15;;;;;;;6.50;2.80;;;9.80;40.70;;;;;;10344308;28;20278;-79
2024/01/23 19:30:19;;;;;;;8.47;3.73;;;9.90;40.80;;;;;;10340824;28;20313;-77
2024/01/23 19:35:22;;;;;;;7.17;3.80;;;9.90;40.80;;;;;;10342101;28;20245;-78
2024/01/23 19:40:27;;;;;;;8.57;4.10;;;9.90;40.80;;;;;;10343039;28;20234;-78
2024/01/23 19:45:30;;;;;;;6.10;2.50;;;9.90;40.80;;;;;;10341700;28;20326;-77
2024/01/23 19:50:33;;;;;;;5.87;2.70;;;10.00;39.90;;;;;;10342673;28;20226;-79
2024/01/23 19:55:38;;;;;;;6.27;2.03;;;10.00;40.00;;;;;;10344679;28;20860;-78
2024/01/23 20:00:41;;;;;;;4.27;1.83;;;10.00;39.90;;;;;;10337499;28;20218;-76
2024/01/23 20:05:45;;;;;;;6.07;1.90;;;10.10;40.00;;;;;;10344275;28;20234;-80
2024/01/23 20:10:49;;;;;;;5.80;2.10;;;10.10;40.00;;;;;;10343219;28;20237;-78
2024/01/23 20:15:53;;;;;;;6.43;2.20;;;10.10;39.50;;;;;;10337886;28;20233;-81
2024/01/23 20:20:57;;;;;;;6.53;2.30;;;10.20;40.00;;;;;;10336987;28;20230;-79
2024/01/23 20:26:03;;;;;;;5.87;1.90;;;10.20;39.80;;;;;;10339755;28;20235;-77
2024/01/23 20:31:06;;;;;;;5.27;2.40;;;10.30;39.50;;;;;;10337780;28;20233;-77
2024/01/23 20:36:09;;;;;;;4.80;2.30;;;10.30;39.70;;;;;;10334492;28;20236;-78
2024/01/23 20:41:14;;;;;;;6.03;2.20;;;10.30;39.80;;;;;;10333894;28;20768;-78
2024/01/23 20:46:17;;;;;;;4.67;1.93;;;10.30;39.70;;;;;;10335030;28;20230;-78
2024/01/23 20:51:21;;;;;;;4.33;2.00;;;10.30;40.20;;;;;;10340018;28;21431;-78
2024/01/23 20:56:26;;;;;;;3.50;1.70;;;10.20;40.10;;;;;;10335249;28;20250;-80
2024/01/23 21:01:29;;;;;;;4.37;1.50;;;10.10;40.00;;;;;;10343786;28;20797;-80
2024/01/23 21:06:33;;;;;;;4.23;1.70;;;10.00;39.90;;;;;;10345761;28;20234;-78
2024/01/23 21:11:42;;;;;;;8.67;1.87;;;9.90;40.80;;;;;;10341579;28;20249;-78
2024/01/23 21:16:46;;;;;;;4.83;1.93;;;9.80;41.00;;;;;;10343703;28;20266;-77
2024/01/23 21:21:50;;;;;;;4.50;2.00;;;9.70;40.80;;;;;;10337026;28;20500;-78
2024/01/23 21:26:54;;;;;;;3.10;1.60;;;9.70;41.00;;;;;;10332392;28;20285;-78
2024/01/23 21:31:58;;;;;;;5.07;1.70;;;9.60;41.20;;;;;;10344188;28;21052;-78
2024/01/23 21:37:01;;;;;;;3.50;1.50;;;9.60;41.30;;;;;;10345120;28;20225;-78
2024/01/23 21:42:06;;;;;;;3.67;1.50;;;9.50;41.30;;;;;;10347146;28;20940;-78
2024/01/23 21:47:09;;;;;;;3.00;1.67;;;9.50;41.80;;;;;;10343898;28;20894;-77
2024/01/23 21:52:12;;;;;;;3.53;1.70;;;9.40;41.60;;;;;;10351538;28;20776;-78
2024/01/23 21:57:17;;;;;;;2.57;1.20;;;9.40;41.80;;;;;;10338693;28;20227;-78
2024/01/23 22:02:21;;;;;;;3.60;1.50;;;9.30;42.20;;;;;;10343813;28;20232;-78
2024/01/23 22:07:24;;;;;;;3.00;1.40;;;9.30;42.20;;;;;;10334303;28;20698;-78
2024/01/23 22:12:28;;;;;;;3.87;1.40;;;9.20;42.50;;;;;;10344804;28;20294;-78
2024/01/23 22:17:32;;;;;;;2.60;1.30;;;9.20;42.60;;;;;;10350133;28;20900;-78
2024/01/23 22:22:35;;;;;;;2.67;1.10;;;9.20;42.60;;;;;;10352552;28;20312;-78
2024/01/23 22:27:39;;;;;;;3.10;1.30;;;9.20;42.70;;;;;;10354497;28;20258;-78
2024/01/23 22:32:43;;;;;;;2.70;1.47;;;9.20;43.00;;;;;;10348307;28;20294;-78
2024/01/23 22:37:46;;;;;;;1.87;1.07;;;9.20;43.00;;;;;;10357013;28;20292;-78
2024/01/23 22:42:51;;;;;;;2.53;1.13;;;9.10;43.10;;;;;;10354226;28;20245;-78
2024/01/23 22:47:54;;;;;;;5.17;1.40;;;9.10;43.60;;;;;;10352202;28;20596;-78
2024/01/23 22:52:57;;;;;;;2.13;1.03;;;9.00;43.50;;;;;;10348537;28;20292;-78
2024/01/23 22:58:02;;;;;;;3.97;1.10;;;9.00;43.70;;;;;;10347160;28;21002;-76
2024/01/23 23:03:05;;;;;;;1.43;1.00;;;9.00;43.90;;;;;;10345519;28;20333;-77
2024/01/23 23:08:09;;;;;;;2.93;1.23;;;9.00;43.70;;;;;;10346876;28;20218;-77
2024/01/23 23:13:13;;;;;;;2.13;1.00;;;9.00;43.70;;;;;;10335563;28;20600;-77
2024/01/23 23:18:17;;;;;;;3.40;1.10;;;9.00;44.00;;;;;;10351272;28;20870;-79
2024/01/23 23:23:20;;;;;;;2.10;1.30;;;9.00;43.90;;;;;;10351967;28;20227;-77
2024/01/23 23:28:25;;;;;;;3.23;1.13;;;9.00;43.80;;;;;;10356179;28;20309;-76
2024/01/23 23:33:28;;;;;;;2.03;1.20;;;9.00;43.80;;;;;;10349453;28;20608;-77
2024/01/23 23:38:31;;;;;;;1.57;1.00;;;9.10;43.70;;;;;;10350310;28;20277;-79
2024/01/23 23:43:36;;;;;;;2.23;1.10;;;9.10;43.80;;;;;;10354445;28;20787;-77
2024/01/23 23:48:39;;;;;;;2.50;1.00;;;9.10;43.90;;;;;;10348352;28;20230;-77
2024/01/23 23:53:42;;;;;;;2.60;1.00;;;9.20;43.90;;;;;;10345063;28;20226;-79
2024/01/23 23:58:47;;;;;;;1.90;1.20;;;9.20;43.80;;;;;;10353617;28;20312;-77
